Time;durP1;ratioP1;P1;durP2;ratioP2;P2;SDS_P1;SDS_P2;PMS_P1;PMS_P2;Temp;Humidity;BMP_temperature;BMP_pressure;BME280_temperature;BME280_humidity;BME280_pressure;Samples;Min_cycle;Max_cycle;Signal;HPM_P1;HPM_P2
2021/07/18 00:01:59;;;;;;;;;;;;;;;-148.22;100.00;58358.63;5034315;28;1293;-80
2021/07/18 00:04:26;;;;;;;;;;;;;;;-148.22;100.00;58358.63;5034131;28;1213;-81
2021/07/18 00:06:52;;;;;;;;;;;;;;;-148.22;100.00;58358.63;5035333;28;1902;-80
2021/07/18 00:09:19;;;;;;;;;;;;;;;-148.22;100.00;58358.63;5034049;28;1259;-80
2021/07/18 00:11:50;;;;;;;;;;;;;;;-148.22;100.00;58358.63;5032632;28;1229;-80
2021/07/18 00:14:16;;;;;;;;;;;;;;;-148.22;100.00;58358.63;5033200;28;1304;-81
2021/07/18 00:16:41;;;;;;;;;;;;;;;-148.22;100.00;58358.63;5034528;28;993;-80
2021/07/18 00:19:07;;;;;;;;;;;;;;;-148.22;100.00;58358.63;5033934;28;1310;-80
2021/07/18 00:21:34;;;;;;;;;;;;;;;-148.22;100.00;58358.63;5033242;28;1429;-80
2021/07/18 00:24:01;;;;;;;;;;;;;;;-148.22;100.00;58358.63;5034024;28;1266;-80
2021/07/18 00:27:00;;;;;;;;;;;;;;;-148.22;100.00;58358.63;5033884;28;1922;-80
2021/07/18 00:29:26;;;;;;;;;;;;;;;-148.22;100.00;58358.63;5013380;28;1200;-81
2021/07/18 00:31:53;;;;;;;;;;;;;;;-148.22;100.00;58358.63;4997112;28;1161;-80
2021/07/18 00:34:20;;;;;;;;;;;;;;;-148.22;100.00;58358.63;5000618;28;1193;-80
2021/07/18 00:36:58;;;;;;;;;;;;;;;-148.22;100.00;58358.63;5017225;28;819;-80
2021/07/18 00:39:40;;;;;;;;;;;;;;;-148.22;100.00;58358.63;4999180;28;1388;-80
2021/07/18 00:42:07;;;;;;;;;;;;;;;-148.22;100.00;58358.63;4999531;28;1196;-81
2021/07/18 00:44:34;;;;;;;;;;;;;;;-148.22;100.00;58358.63;5000363;28;1149;-80
2021/07/18 00:47:08;;;;;;;;;;;;;;;-148.22;100.00;58358.63;5016853;28;1934;-80
2021/07/18 00:49:37;;;;;;;;;;;;;;;-148.22;100.00;58358.63;5016682;28;977;-80
2021/07/18 00:52:03;;;;;;;;;;;;;;;-148.22;100.00;58358.63;5016736;28;965;-81
2021/07/18 00:54:31;;;;;;;;;;;;;;;-148.22;100.00;58358.63;5000292;28;1331;-80
2021/07/18 00:56:57;;;;;;;;;;;;;;;-148.22;100.00;58358.63;5016667;28;933;-80
2021/07/18 00:59:36;;;;;;;;;;;;;;;-148.22;100.00;58358.63;5000357;28;1300;-80
2021/07/18 01:02:21;;;;;;;;;;;;;;;-148.22;100.00;58358.63;5000209;28;1200;-80
2021/07/18 01:04:46;;;;;;;;;;;;;;;-148.22;100.00;58358.63;5013307;28;1389;-81
2021/07/18 01:07:13;;;;;;;;;;;;;;;-148.22;100.00;58358.63;5038148;28;1894;-80
2021/07/18 01:09:46;;;;;;;;;;;;;;;-148.22;100.00;58358.63;5037055;28;1289;-80
2021/07/18 01:12:11;;;;;;;;;;;;;;;-148.22;100.00;58358.63;5038239;28;926;-80
2021/07/18 01:14:37;;;;;;;;;;;;;;;-148.22;100.00;58358.63;5036713;28;1292;-80
2021/07/18 01:17:04;;;;;;;;;;;;;;;-148.22;100.00;58358.63;5036923;28;1213;-80
2021/07/18 01:19:48;;;;;;;;;;;;;;;-148.22;100.00;58358.63;5036820;28;1222;-80
2021/07/18 01:22:13;;;;;;;;;;;;;;;-148.22;100.00;58358.63;5036139;28;1322;-80
2021/07/18 01:24:47;;;;;;;;;;;;;;;-148.22;100.00;58358.63;5036674;28;1516;-80
2021/07/18 01:27:38;;;;;;;;;;;;;;;-148.22;100.00;58358.63;5035122;28;1922;-80
2021/07/18 01:30:07;;;;;;;;;;;;;;;-148.22;100.00;58358.63;5018476;28;1335;-80
2021/07/18 01:32:35;;;;;;;;;;;;;;;-148.22;100.00;58358.63;5018191;28;1298;-80
2021/07/18 01:35:03;;;;;;;;;;;;;;;-148.22;100.00;58358.63;5018457;28;1270;-80
2021/07/18 01:37:28;;;;;;;;;;;;;;;-148.22;100.00;58358.63;5035609;28;1345;-79
2021/07/18 01:39:55;;;;;;;;;;;;;;;-148.22;100.00;58358.63;5035645;28;951;-80
2021/07/18 01:42:24;;;;;;;;;;;;;;;-148.22;100.00;58358.63;5035776;28;708;-80
2021/07/18 01:44:50;;;;;;;;;;;;;;;-148.22;100.00;58358.63;5018322;28;1365;-80
2021/07/18 01:47:16;;;;;;;;;;;;;;;-148.22;100.00;58358.63;5018726;28;1894;-79
2021/07/18 01:49:54;;;;;;;;;;;;;;;-148.22;100.00;58358.63;5018798;28;1291;-79
2021/07/18 01:52:21;;;;;;;;;;;;;;;-148.22;100.00;58358.63;5018141;28;1161;-80
2021/07/18 01:54:59;;;;;;;;;;;;;;;-148.22;100.00;58358.63;5018455;28;1183;-80
2021/07/18 01:57:26;;;;;;;;;;;;;;;-148.22;100.00;58358.63;5018669;28;1240;-79
2021/07/18 01:59:51;;;;;;;;;;;;;;;-148.22;100.00;58358.63;5035263;28;1183;-80
2021/07/18 02:02:33;;;;;;;;;;;;;;;-148.22;100.00;58358.63;5035291;28;1334;-84
2021/07/18 02:08:01;;;;;;;;;;;;;;;-148.22;100.00;58358.63;5037187;28;1890;-83
2021/07/18 02:10:41;;;;;;;;;;;;;;;-148.22;100.00;58358.63;5035376;28;1419;-84
2021/07/18 02:13:19;;;;;;;;;;;;;;;-148.22;100.00;58358.63;5033277;28;1111;-84
2021/07/18 02:15:45;;;;;;;;;;;;;;;-148.22;100.00;58358.63;5035870;28;1280;-84
2021/07/18 02:18:10;;;;;;;;;;;;;;;-148.22;100.00;58358.63;5036983;28;783;-83
2021/07/18 02:20:36;;;;;;;;;;;;;;;-148.22;100.00;58358.63;5035897;28;1331;-84
2021/07/18 02:23:04;;;;;;;;;;;;;;;-148.22;100.00;58358.63;5035935;28;1312;-84
2021/07/18 02:25:31;;;;;;;;;;;;;;;-148.22;100.00;58358.63;5035741;28;1155;-84
2021/07/18 02:31:04;;;;;;;;;;;;;;;-148.22;100.00;58358.63;5036932;28;597;-84
2021/07/18 02:34:07;;;;;;;;;;;;;;;-148.22;100.00;58358.63;5036032;28;1191;-84
2021/07/18 02:36:49;;;;;;;;;;;;;;;-148.22;100.00;58358.63;5035532;28;1216;-84
2021/07/18 02:39:22;;;;;;;;;;;;;;;-148.22;100.00;58358.63;5035750;28;1221;-84
2021/07/18 02:41:47;;;;;;;;;;;;;;;-148.22;100.00;58358.63;5035670;28;1347;-84
2021/07/18 02:44:14;;;;;;;;;;;;;;;-148.22;100.00;58358.63;5035668;28;1253;-84
2021/07/18 02:46:40;;;;;;;;;;;;;;;-148.22;100.00;58358.63;5036523;28;1882;-83
2021/07/18 02:49:13;;;;;;;;;;;;;;;-148.22;100.00;58358.63;5034838;28;1168;-84
2021/07/18 02:52:04;;;;;;;;;;;;;;;-148.22;100.00;58358.63;5034495;28;1171;-83
2021/07/18 02:55:05;;;;;;;;;;;;;;;-148.22;100.00;58358.63;5035279;28;1182;-83
2021/07/18 03:04:03;;;;;;;;;;;;;;;-148.22;100.00;58358.63;4995080;28;1108;-84
2021/07/18 03:06:54;;;;;;;;;;;;;;;-148.22;100.00;58358.63;4994707;28;1963;-84
2021/07/18 03:09:32;;;;;;;;;;;;;;;-148.22;100.00;58358.63;4978517;28;1228;-84
2021/07/18 03:12:35;;;;;;;;;;;;;;;-148.22;100.00;58358.63;4994785;28;1180;-84
2021/07/18 03:15:01;;;;;;;;;;;;;;;-148.22;100.00;58358.63;4978364;28;1281;-83
2021/07/18 03:17:27;;;;;;;;;;;;;;;-148.22;100.00;58358.63;4994489;28;1338;-83
2021/07/18 03:19:53;;;;;;;;;;;;;;;-148.22;100.00;58358.63;4994799;28;944;-84
2021/07/18 03:22:43;;;;;;;;;;;;;;;-148.22;100.00;58358.63;4994794;28;1233;-84
2021/07/18 03:25:27;;;;;;;;;;;;;;;-148.22;100.00;58358.63;4994807;28;866;-84
2021/07/18 03:27:53;;;;;;;;;;;;;;;-148.22;100.00;58358.63;4977941;28;1907;-84
2021/07/18 03:30:43;;;;;;;;;;;;;;;-148.22;100.00;58358.63;4993979;28;1302;-84
2021/07/18 03:33:23;;;;;;;;;;;;;;;-148.22;100.00;58358.63;4987276;28;1317;-84
2021/07/18 03:36:10;;;;;;;;;;;;;;;-148.22;100.00;58358.63;4994423;28;1283;-84
2021/07/18 03:38:55;;;;;;;;;;;;;;;-148.22;100.00;58358.63;4997675;28;1316;-84
2021/07/18 03:41:40;;;;;;;;;;;;;;;-148.22;100.00;58358.63;5040320;28;1214;-83
2021/07/18 03:44:17;;;;;;;;;;;;;;;-148.22;100.00;58358.63;5016093;28;1056;-83
2021/07/18 03:46:55;;;;;;;;;;;;;;;-148.22;100.00;58358.63;5014665;28;1957;-83
2021/07/18 03:49:20;;;;;;;;;;;;;;;-148.22;100.00;58358.63;5014835;28;1233;-83
2021/07/18 03:51:48;;;;;;;;;;;;;;;-148.22;100.00;58358.63;5014877;28;1368;-83
2021/07/18 03:54:21;;;;;;;;;;;;;;;-148.22;100.00;58358.63;5014887;28;1351;-84
2021/07/18 04:03:16;;;;;;;;;;;;;;;-148.22;100.00;58358.63;5013931;28;1083;-84
2021/07/18 04:05:44;;;;;;;;;;;;;;;-148.22;100.00;58358.63;5013910;28;992;-84
2021/07/18 04:08:28;;;;;;;;;;;;;;;-148.22;100.00;58358.63;5016262;28;1898;-84
2021/07/18 04:11:14;;;;;;;;;;;;;;;-148.22;100.00;58358.63;5001266;28;1243;-84
2021/07/18 04:13:46;;;;;;;;;;;;;;;-148.22;100.00;58358.63;5016826;28;1270;-84
2021/07/18 04:16:12;;;;;;;;;;;;;;;-148.22;100.00;58358.63;5017749;28;1278;-83
2021/07/18 04:21:39;;;;;;;;;;;;;;;-148.22;100.00;58358.63;5017609;28;1065;-84
2021/07/18 04:27:32;;;;;;;;;;;;;;;-148.22;100.00;58358.63;5017288;28;1980;-83
2021/07/18 04:30:35;;;;;;;;;;;;;;;-148.22;100.00;58358.63;5001016;28;1355;-84
2021/07/18 04:33:36;;;;;;;;;;;;;;;-148.22;100.00;58358.63;5000768;28;1202;-84
2021/07/18 04:36:32;;;;;;;;;;;;;;;-148.22;100.00;58358.63;5018717;28;945;-84
2021/07/18 04:39:17;;;;;;;;;;;;;;;-148.22;100.00;58358.63;5018144;28;1369;-84
2021/07/18 04:44:53;;;;;;;;;;;;;;;-148.22;100.00;58358.63;5038054;28;885;-85
2021/07/18 04:47:20;;;;;;;;;;;;;;;-148.22;100.00;58358.63;5038639;28;1890;-85
2021/07/18 04:49:55;;;;;;;;;;;;;;;-148.22;100.00;58358.63;5037089;28;966;-85
2021/07/18 04:52:55;;;;;;;;;;;;;;;-148.22;100.00;58358.63;5036785;28;1188;-84
2021/07/18 04:55:21;;;;;;;;;;;;;;;-148.22;100.00;58358.63;5037544;28;1327;-85
2021/07/18 04:57:52;;;;;;;;;;;;;;;-148.22;100.00;58358.63;5037641;28;1221;-84
2021/07/18 05:00:27;;;;;;;;;;;;;;;-148.22;100.00;58358.63;5037430;28;1220;-84
2021/07/18 05:02:53;;;;;;;;;;;;;;;-148.22;100.00;58358.63;5037239;28;1176;-84
2021/07/18 05:05:24;;;;;;;;;;;;;;;-148.22;100.00;58358.63;5037345;28;1065;-84
2021/07/18 05:08:02;;;;;;;;;;;;;;;-148.22;100.00;58358.63;5037208;28;1947;-84
2021/07/18 05:10:57;;;;;;;;;;;;;;;-148.22;100.00;58358.63;5037305;28;1343;-84
2021/07/18 05:13:44;;;;;;;;;;;;;;;-148.22;100.00;58358.63;5036420;28;1024;-84
2021/07/18 05:16:09;;;;;;;;;;;;;;;-148.22;100.00;58358.63;5019858;28;1290;-84
2021/07/18 05:21:36;;;;;;;;;;;;;;;-148.22;100.00;58358.63;5035514;28;1055;-84
2021/07/18 05:24:29;;;;;;;;;;;;;;;-148.22;100.00;58358.63;5035427;28;1029;-84
2021/07/18 05:26:54;;;;;;;;;;;;;;;-148.22;100.00;58358.63;5019375;28;1899;-83
2021/07/18 05:29:47;;;;;;;;;;;;;;;-148.22;100.00;58358.63;5034926;28;889;-83
2021/07/18 05:35:32;;;;;;;;;;;;;;;-148.22;100.00;58358.63;5035949;28;672;-84
2021/07/18 05:38:23;;;;;;;;;;;;;;;-148.22;100.00;58358.63;5036342;28;1047;-84
2021/07/18 05:40:48;;;;;;;;;;;;;;;-148.22;100.00;58358.63;5035912;28;1256;-84
2021/07/18 05:46:32;;;;;;;;;;;;;;;-148.22;100.00;58358.63;5035906;28;666;-83
2021/07/18 05:49:35;;;;;;;;;;;;;;;-148.22;100.00;58358.63;5019542;28;1224;-84
2021/07/18 05:55:04;;;;;;;;;;;;;;;-148.22;100.00;58358.63;5015734;28;602;-84
2021/07/18 05:57:39;;;;;;;;;;;;;;;-148.22;100.00;58358.63;4999438;28;1192;-84
2021/07/18 06:00:07;;;;;;;;;;;;;;;-148.22;100.00;58358.63;4998432;28;1283;-84
2021/07/18 06:03:00;;;;;;;;;;;;;;;-148.22;100.00;58358.63;5014384;28;1175;-84
2021/07/18 06:05:39;;;;;;;;;;;;;;;-148.22;100.00;58358.63;5015062;28;902;-84
2021/07/18 06:08:17;;;;;;;;;;;;;;;-148.22;100.00;58358.63;4998413;28;1964;-84
2021/07/18 06:10:57;;;;;;;;;;;;;;;-148.22;100.00;58358.63;4999185;28;1304;-84
2021/07/18 06:13:57;;;;;;;;;;;;;;;-148.22;100.00;58358.63;4998303;28;1281;-84
2021/07/18 06:16:22;;;;;;;;;;;;;;;-148.22;100.00;58358.63;4978771;28;1321;-83
2021/07/18 06:18:47;;;;;;;;;;;;;;;-148.22;100.00;58358.63;4995499;28;1234;-83
2021/07/18 06:21:21;;;;;;;;;;;;;;;-148.22;100.00;58358.63;4979241;28;1214;-83
2021/07/18 06:24:13;;;;;;;;;;;;;;;-148.22;100.00;58358.63;4994875;28;1208;-84
2021/07/18 06:27:07;;;;;;;;;;;;;;;-148.22;100.00;58358.63;4997703;28;1918;-84
2021/07/18 06:32:35;;;;;;;;;;;;;;;-148.22;100.00;58358.63;4997461;28;610;-83
2021/07/18 06:35:17;;;;;;;;;;;;;;;-148.22;100.00;58358.63;4997394;28;845;-83
2021/07/18 06:37:51;;;;;;;;;;;;;;;-148.22;100.00;58358.63;4996253;28;1299;-83
2021/07/18 06:40:18;;;;;;;;;;;;;;;-148.22;100.00;58358.63;4996209;28;1293;-84
2021/07/18 06:42:44;;;;;;;;;;;;;;;-148.22;100.00;58358.63;4996151;28;1165;-83
2021/07/18 06:45:30;;;;;;;;;;;;;;;-148.22;100.00;58358.63;4996132;28;1300;-83
2021/07/18 06:48:05;;;;;;;;;;;;;;;-148.22;100.00;58358.63;4995924;28;1894;-83
2021/07/18 06:50:51;;;;;;;;;;;;;;;-148.22;100.00;58358.63;5012378;28;1306;-84
2021/07/18 06:53:31;;;;;;;;;;;;;;;-148.22;100.00;58358.63;5012407;28;1488;-83
2021/07/18 06:55:56;;;;;;;;;;;;;;;-148.22;100.00;58358.63;4995952;28;1072;-84
2021/07/18 06:58:55;;;;;;;;;;;;;;;-148.22;100.00;58358.63;4995841;28;1327;-84
2021/07/18 07:01:33;;;;;;;;;;;;;;;-148.22;100.00;58358.63;5014680;28;1159;-84
2021/07/18 07:03:58;;;;;;;;;;;;;;;-148.22;100.00;58358.63;5025967;23;1951;-83
2021/07/18 07:06:24;;;;;;;;;;;;;;;-148.22;100.00;58358.63;5056012;28;1240;-83
2021/07/18 07:08:49;;;;;;;;;;;;;;;-148.22;100.00;58358.63;5054968;28;1914;-84
2021/07/18 07:11:18;;;;;;;;;;;;;;;-148.22;100.00;58358.63;5056059;28;1159;-84
2021/07/18 07:14:01;;;;;;;;;;;;;;;-148.22;100.00;58358.63;5054950;28;1192;-83
2021/07/18 07:16:54;;;;;;;;;;;;;;;-148.22;100.00;58358.63;5071680;28;1171;-83
2021/07/18 07:19:35;;;;;;;;;;;;;;;-148.22;100.00;58358.63;5014224;28;1242;-84
2021/07/18 07:22:28;;;;;;;;;;;;;;;-148.22;100.00;58358.63;4997773;28;1320;-83
2021/07/18 07:25:08;;;;;;;;;;;;;;;-148.22;100.00;58358.63;4997877;28;1418;-84
2021/07/18 07:27:59;;;;;;;;;;;;;;;-148.22;100.00;58358.63;5013935;28;1986;-84
2021/07/18 07:30:45;;;;;;;;;;;;;;;-148.22;100.00;58358.63;4997561;28;1215;-85
2021/07/18 07:33:12;;;;;;;;;;;;;;;-148.22;100.00;58358.63;5014295;28;1263;-85
2021/07/18 07:35:57;;;;;;;;;;;;;;;-148.22;100.00;58358.63;5013380;28;1264;-85
2021/07/18 07:39:01;;;;;;;;;;;;;;;-148.22;100.00;58358.63;5013426;28;1565;-84
2021/07/18 07:41:45;;;;;;;;;;;;;;;-148.22;100.00;58358.63;5013002;28;1377;-84
2021/07/18 07:44:23;;;;;;;;;;;;;;;-148.22;100.00;58358.63;5013941;28;1255;-84
2021/07/18 07:46:50;;;;;;;;;;;;;;;-148.22;100.00;58358.63;4997546;28;1894;-84
2021/07/18 07:49:33;;;;;;;;;;;;;;;-148.22;100.00;58358.63;5012975;28;1008;-84
2021/07/18 07:52:22;;;;;;;;;;;;;;;-148.22;100.00;58358.63;4997673;28;1315;-84
2021/07/18 07:54:47;;;;;;;;;;;;;;;-148.22;100.00;58358.63;5013376;28;1326;-84
2021/07/18 07:57:48;;;;;;;;;;;;;;;-148.22;100.00;58358.63;5051256;28;1272;-83
2021/07/18 08:00:17;;;;;;;;;;;;;;;-148.22;100.00;58358.63;5054231;28;1303;-84
2021/07/18 08:02:45;;;;;;;;;;;;;;;-148.22;100.00;58358.63;5070813;28;1332;-84
2021/07/18 08:05:10;;;;;;;;;;;;;;;-148.22;100.00;58358.63;5070964;28;1326;-84
2021/07/18 08:07:59;;;;;;;;;;;;;;;-148.22;100.00;58358.63;5055453;28;1972;-83
2021/07/18 08:10:32;;;;;;;;;;;;;;;-148.22;100.00;58358.63;5054209;28;1283;-83
2021/07/18 08:16:00;;;;;;;;;;;;;;;-148.22;100.00;58358.63;5055456;28;582;-84
2021/07/18 08:18:51;;;;;;;;;;;;;;;-148.22;100.00;58358.63;5055383;28;1053;-83
2021/07/18 08:21:50;;;;;;;;;;;;;;;-148.22;100.00;58358.63;5054342;28;1337;-84
2021/07/18 08:24:27;;;;;;;;;;;;;;;-148.22;100.00;58358.63;5055391;28;889;-83
2021/07/18 08:27:18;;;;;;;;;;;;;;;-148.22;100.00;58358.63;5055257;28;1949;-84
2021/07/18 08:30:19;;;;;;;;;;;;;;;-148.22;100.00;58358.63;5054127;28;1260;-83
2021/07/18 08:32:53;;;;;;;;;;;;;;;-148.22;100.00;58358.63;4977725;28;1059;-84
2021/07/18 08:35:48;;;;;;;;;;;;;;;-148.22;100.00;58358.63;4993903;28;998;-84
2021/07/18 08:38:26;;;;;;;;;;;;;;;-148.22;100.00;58358.63;4898182;29;1227;-84
2021/07/18 08:41:00;;;;;;;;;;;;;;;-148.22;100.00;58358.63;4882614;29;1445;-84
2021/07/18 08:43:51;;;;;;;;;;;;;;;-148.22;100.00;58358.63;4898139;29;995;-84
2021/07/18 08:46:36;;;;;;;;;;;;;;;-148.22;100.00;58358.63;4898069;29;1176;-83
2021/07/18 08:49:10;;;;;;;;;;;;;;;-148.22;100.00;58358.63;4898258;29;925;-84
2021/07/18 08:51:46;;;;;;;;;;;;;;;-148.22;100.00;58358.63;4882539;29;1340;-83
2021/07/18 08:54:17;;;;;;;;;;;;;;;-148.22;100.00;58358.63;4884438;29;1238;-84
2021/07/18 08:57:02;;;;;;;;;;;;;;;-148.22;100.00;58358.63;4885869;29;1274;-84
2021/07/18 08:59:28;;;;;;;;;;;;;;;-148.22;100.00;58358.63;4900830;29;1306;-84
2021/07/18 09:02:09;;;;;;;;;;;;;;;-148.22;100.00;58358.63;4901556;29;1067;-84
2021/07/18 09:04:35;;;;;;;;;;;;;;;-148.22;100.00;58358.63;4900684;29;1375;-83
2021/07/18 09:07:20;;;;;;;;;;;;;;;-148.22;100.00;58358.63;4936359;29;1891;-84
2021/07/18 09:10:16;;;;;;;;;;;;;;;-148.22;100.00;58358.63;4958262;29;915;-84
2021/07/18 09:13:06;;;;;;;;;;;;;;;-148.22;100.00;58358.63;4941570;29;1328;-83
2021/07/18 09:22:17;;;;;;;;;;;;;;;-148.22;100.00;58358.63;5016738;28;940;-84
2021/07/18 09:24:54;;;;;;;;;;;;;;;-148.22;100.00;58358.63;5000015;28;1215;-84
2021/07/18 09:27:26;;;;;;;;;;;;;;;-148.22;100.00;58358.63;4999708;28;1895;-84
2021/07/18 09:30:18;;;;;;;;;;;;;;;-148.22;100.00;58358.63;5000020;28;1351;-84
2021/07/18 09:33:04;;;;;;;;;;;;;;;-148.22;100.00;58358.63;4999748;28;1361;-84
2021/07/18 09:35:38;;;;;;;;;;;;;;;-148.22;100.00;58358.63;4999838;28;1290;-84
2021/07/18 09:38:36;;;;;;;;;;;;;;;-148.22;100.00;58358.63;5016110;28;1059;-84
2021/07/18 09:41:02;;;;;;;;;;;;;;;-148.22;100.00;58358.63;4999643;28;1215;-84
2021/07/18 09:43:29;;;;;;;;;;;;;;;-148.22;100.00;58358.63;4999709;28;1339;-84
2021/07/18 09:45:57;;;;;;;;;;;;;;;-148.22;100.00;58358.63;4999698;28;1416;-84
2021/07/18 09:48:32;;;;;;;;;;;;;;;-148.22;100.00;58358.63;4999465;28;1898;-85
2021/07/18 09:51:16;;;;;;;;;;;;;;;-148.22;100.00;58358.63;4999529;28;1143;-84
2021/07/18 09:54:00;;;;;;;;;;;;;;;-148.22;100.00;58358.63;4999447;28;1196;-84
2021/07/18 09:59:49;;;;;;;;;;;;;;;-148.22;100.00;58358.63;5028617;28;958;-84
2021/07/18 10:02:34;;;;;;;;;;;;;;;-148.22;100.00;58358.63;5032923;28;1276;-84
2021/07/18 10:05:00;;;;;;;;;;;;;;;-148.22;100.00;58358.63;5031804;28;1285;-83
2021/07/18 10:07:56;;;;;;;;;;;;;;;-148.22;100.00;58358.63;5036262;28;1970;-83
2021/07/18 10:10:38;;;;;;;;;;;;;;;-148.22;100.00;58358.63;5037342;28;862;-83
2021/07/18 10:13:35;;;;;;;;;;;;;;;-148.22;100.00;58358.63;5052856;28;1254;-83
2021/07/18 10:16:00;;;;;;;;;;;;;;;-148.22;100.00;58358.63;5037347;28;874;-83
2021/07/18 10:18:33;;;;;;;;;;;;;;;-148.22;100.00;58358.63;5052834;28;1222;-83
2021/07/18 10:21:13;;;;;;;;;;;;;;;-148.22;100.00;58358.63;5037068;28;1048;-83
2021/07/18 10:23:55;;;;;;;;;;;;;;;-148.22;100.00;58358.63;5052517;28;1173;-83
2021/07/18 10:27:02;;;;;;;;;;;;;;;-148.22;100.00;58358.63;5052390;28;1262;-83
2021/07/18 10:29:28;;;;;;;;;;;;;;;-148.22;100.00;58358.63;4995630;28;808;-83
2021/07/18 10:31:56;;;;;;;;;;;;;;;-148.22;100.00;58358.63;4995665;28;1280;-84
2021/07/18 10:34:35;;;;;;;;;;;;;;;-148.22;100.00;58358.63;4995472;28;1165;-83
2021/07/18 10:37:36;;;;;;;;;;;;;;;-148.22;100.00;58358.63;4995403;28;1347;-83
2021/07/18 10:40:24;;;;;;;;;;;;;;;-148.22;100.00;58358.63;4918614;29;947;-83
2021/07/18 10:43:08;;;;;;;;;;;;;;;-148.22;100.00;58358.63;4918605;29;1254;-83
2021/07/18 10:45:54;;;;;;;;;;;;;;;-148.22;100.00;58358.63;4918369;29;1249;-83
2021/07/18 10:51:37;;;;;;;;;;;;;;;-148.22;100.00;58358.63;4918303;29;1067;-83
2021/07/18 10:54:25;;;;;;;;;;;;;;;-148.22;100.00;58358.63;4937115;29;1368;-83
2021/07/18 10:57:18;;;;;;;;;;;;;;;-148.22;100.00;58358.63;4921348;29;1321;-83
2021/07/18 10:59:44;;;;;;;;;;;;;;;-148.22;100.00;58358.63;4937171;29;1321;-83
2021/07/18 11:02:11;;;;;;;;;;;;;;;-148.22;100.00;58358.63;4937189;29;1016;-83
2021/07/18 11:04:40;;;;;;;;;;;;;;;-148.22;100.00;58358.63;4956252;29;1169;-82
2021/07/18 11:07:34;;;;;;;;;;;;;;;-148.22;100.00;58358.63;4956200;29;1961;-83
2021/07/18 11:10:19;;;;;;;;;;;;;;;-148.22;100.00;58358.63;4880546;29;1505;-83
2021/07/18 11:15:47;;;;;;;;;;;;;;;-148.22;100.00;58358.63;4918103;29;599;-84
2021/07/18 11:18:33;;;;;;;;;;;;;;;-148.22;100.00;58358.63;4911475;29;1324;-83
2021/07/18 11:21:37;;;;;;;;;;;;;;;-148.22;100.00;58358.63;4935356;29;1091;-84
2021/07/18 11:24:13;;;;;;;;;;;;;;;-148.22;100.00;58358.63;4917736;29;1154;-84
2021/07/18 11:26:46;;;;;;;;;;;;;;;-148.22;100.00;58358.63;4902114;29;1890;-84
2021/07/18 11:29:38;;;;;;;;;;;;;;;-148.22;100.00;58358.63;4913788;29;1229;-83
2021/07/18 11:35:35;;;;;;;;;;;;;;;-148.22;100.00;58358.63;4898985;29;970;-84
2021/07/18 11:38:17;;;;;;;;;;;;;;;-148.22;100.00;58358.63;4898832;29;1191;-83
2021/07/18 11:40:52;;;;;;;;;;;;;;;-148.22;100.00;58358.63;4898540;29;1246;-83
2021/07/18 11:43:27;;;;;;;;;;;;;;;-148.22;100.00;58358.63;4898874;29;906;-83
2021/07/18 11:46:04;;;;;;;;;;;;;;;-148.22;100.00;58358.63;4908936;29;1184;-84
2021/07/18 11:48:53;;;;;;;;;;;;;;;-148.22;100.00;58358.63;4936380;29;1895;-83
2021/07/18 11:51:19;;;;;;;;;;;;;;;-148.22;100.00;58358.63;4936428;29;1357;-84
2021/07/18 11:54:02;;;;;;;;;;;;;;;-148.22;100.00;58358.63;4939845;28;1254;-83
2021/07/18 11:59:30;;;;;;;;;;;;;;;-148.22;100.00;58358.63;4992577;28;1081;-83
2021/07/18 12:01:57;;;;;;;;;;;;;;;-148.22;100.00;58358.63;4992195;28;1244;-83
2021/07/18 12:04:26;;;;;;;;;;;;;;;-148.22;100.00;58358.63;4977857;28;1430;-83
2021/07/18 12:06:59;;;;;;;;;;;;;;;-148.22;100.00;58358.63;4994170;28;1970;-83
2021/07/18 12:09:30;;;;;;;;;;;;;;;-148.22;100.00;58358.63;4994247;28;1351;-83
2021/07/18 12:12:01;;;;;;;;;;;;;;;-148.22;100.00;58358.63;5020827;28;1291;-83
2021/07/18 12:14:47;;;;;;;;;;;;;;;-148.22;100.00;58358.63;5071015;28;1221;-83
2021/07/18 12:17:21;;;;;;;;;;;;;;;-148.22;100.00;58358.63;5070908;28;1359;-83
2021/07/18 12:19:47;;;;;;;;;;;;;;;-148.22;100.00;58358.63;5054235;28;1156;-84
2021/07/18 12:22:19;;;;;;;;;;;;;;;-148.22;100.00;58358.63;5055297;28;830;-83
2021/07/18 12:25:13;;;;;;;;;;;;;;;-148.22;100.00;58358.63;5071087;28;1281;-83
2021/07/18 12:28:07;;;;;;;;;;;;;;;-148.22;100.00;58358.63;5055377;28;1949;-83
2021/07/18 12:31:00;;;;;;;;;;;;;;;-148.22;100.00;58358.63;5059200;28;897;-83
2021/07/18 12:33:51;;;;;;;;;;;;;;;-148.22;100.00;58358.63;5059224;28;846;-84
2021/07/18 12:36:49;;;;;;;;;;;;;;;-148.22;100.00;58358.63;5058852;28;888;-83
2021/07/18 12:39:24;;;;;;;;;;;;;;;-148.22;100.00;58358.63;5073182;28;1276;-83
2021/07/18 12:41:59;;;;;;;;;;;;;;;-148.22;100.00;58358.63;5054557;28;1177;-83
2021/07/18 12:44:43;;;;;;;;;;;;;;;-148.22;100.00;58358.63;5054444;28;1335;-84
2021/07/18 12:50:19;;;;;;;;;;;;;;;-148.22;100.00;58358.63;5038868;28;691;-83
2021/07/18 12:52:54;;;;;;;;;;;;;;;-148.22;100.00;58358.63;5038844;28;989;-82
2021/07/18 12:55:21;;;;;;;;;;;;;;;-148.22;100.00;58358.63;5054143;28;1288;-83
2021/07/18 12:57:52;;;;;;;;;;;;;;;-148.22;100.00;58358.63;5052383;28;884;-83
2021/07/18 13:00:24;;;;;;;;;;;;;;;-148.22;100.00;58358.63;5074399;28;1178;-83
2021/07/18 13:03:28;;;;;;;;;;;;;;;-148.22;100.00;58358.63;5057425;28;1160;-83
2021/07/18 13:06:04;;;;;;;;;;;;;;;-148.22;100.00;58358.63;4997172;28;1342;-82
2021/07/18 13:08:34;;;;;;;;;;;;;;;-148.22;100.00;58358.63;4997165;28;1914;-82
2021/07/18 13:10:59;;;;;;;;;;;;;;;-148.22;100.00;58358.63;4997079;28;1166;-83
2021/07/18 13:13:35;;;;;;;;;;;;;;;-148.22;100.00;58358.63;4996394;28;1322;-82
2021/07/18 13:16:05;;;;;;;;;;;;;;;-148.22;100.00;58358.63;4997104;28;1060;-83
2021/07/18 13:18:44;;;;;;;;;;;;;;;-148.22;100.00;58358.63;4996046;28;1300;-83
2021/07/18 13:21:22;;;;;;;;;;;;;;;-148.22;100.00;58358.63;4996896;28;1165;-82
2021/07/18 13:24:03;;;;;;;;;;;;;;;-148.22;100.00;58358.63;4997018;28;1203;-83
2021/07/18 13:26:43;;;;;;;;;;;;;;;-148.22;100.00;58358.63;4996049;28;1299;-83
2021/07/18 13:29:16;;;;;;;;;;;;;;;-148.22;100.00;58358.63;4996169;28;1177;-83
2021/07/18 13:31:42;;;;;;;;;;;;;;;-148.22;100.00;58358.63;4996575;28;1277;-83
2021/07/18 13:34:07;;;;;;;;;;;;;;;-148.22;100.00;58358.63;4996635;28;1205;-83
2021/07/18 13:36:33;;;;;;;;;;;;;;;-148.22;100.00;58358.63;5025197;28;1094;-84
2021/07/18 13:39:09;;;;;;;;;;;;;;;-148.22;100.00;58358.63;5073107;28;1254;-83
2021/07/18 13:42:00;;;;;;;;;;;;;;;-148.22;100.00;58358.63;5072772;28;1215;-83
2021/07/18 13:44:26;;;;;;;;;;;;;;;-148.22;100.00;58358.63;4980178;28;1245;-83
2021/07/18 13:47:07;;;;;;;;;;;;;;;-148.22;100.00;58358.63;4996260;28;1996;-83
2021/07/18 13:49:43;;;;;;;;;;;;;;;-148.22;100.00;58358.63;4996381;28;1563;-83
2021/07/18 13:52:21;;;;;;;;;;;;;;;-148.22;100.00;58358.63;4996279;28;1251;-83
2021/07/18 13:54:55;;;;;;;;;;;;;;;-148.22;100.00;58358.63;4994957;28;1156;-83
2021/07/18 13:57:22;;;;;;;;;;;;;;;-148.22;100.00;58358.63;4996544;28;1036;-83
2021/07/18 14:00:05;;;;;;;;;;;;;;;-148.22;100.00;58358.63;4996248;28;1200;-83
2021/07/18 14:02:31;;;;;;;;;;;;;;;-148.22;100.00;58358.63;4995086;28;1165;-83
2021/07/18 14:04:58;;;;;;;;;;;;;;;-148.22;100.00;58358.63;4995892;28;1380;-83
2021/07/18 14:07:26;;;;;;;;;;;;;;;-148.22;100.00;58358.63;4996153;28;1988;-83
2021/07/18 14:09:52;;;;;;;;;;;;;;;-148.22;100.00;58358.63;4996080;28;1002;-83
2021/07/18 14:12:17;;;;;;;;;;;;;;;-148.22;100.00;58358.63;4995976;28;1207;-83
2021/07/18 14:14:52;;;;;;;;;;;;;;;-148.22;100.00;58358.63;4995830;28;1070;-82
2021/07/18 14:17:19;;;;;;;;;;;;;;;-148.22;100.00;58358.63;4996043;28;827;-83
2021/07/18 14:19:45;;;;;;;;;;;;;;;-148.22;100.00;58358.63;4995764;28;1096;-83
2021/07/18 14:22:12;;;;;;;;;;;;;;;-148.22;100.00;58358.63;5064542;28;1373;-83
2021/07/18 14:25:02;;;;;;;;;;;;;;;-148.22;100.00;58358.63;5072583;28;1178;-83
2021/07/18 14:27:37;;;;;;;;;;;;;;;-148.22;100.00;58358.63;5055746;28;1894;-83
2021/07/18 14:30:13;;;;;;;;;;;;;;;-148.22;100.00;58358.63;5072579;28;1356;-83